createdAt,value
2022-12-08T00:01:34.310Z,1.81
2022-12-08T00:04:04.571Z,1.82
2022-12-08T00:06:59.715Z,1.83
2022-12-08T00:09:42.333Z,1.81
2022-12-08T00:12:16.541Z,1.75
2022-12-08T00:14:47.284Z,1.70
2022-12-08T00:17:15.891Z,1.66
2022-12-08T00:19:44.475Z,1.64
2022-12-08T00:22:13.034Z,1.61
2022-12-08T00:24:44.102Z,1.61
2022-12-08T00:27:14.153Z,1.63
2022-12-08T00:29:44.460Z,1.66
2022-12-08T00:32:12.856Z,1.67
2022-12-08T00:34:40.898Z,1.67
2022-12-08T00:37:08.849Z,1.68
2022-12-08T00:39:36.787Z,1.69
2022-12-08T00:42:13.911Z,1.70
2022-12-08T00:44:43.826Z,1.70
2022-12-08T00:47:12.897Z,1.72
2022-12-08T00:49:41.691Z,1.73
2022-12-08T00:52:09.591Z,1.73
2022-12-08T00:54:37.537Z,1.72
2022-12-08T00:57:06.186Z,1.69
2022-12-08T00:59:34.228Z,1.67
2022-12-08T01:02:02.137Z,1.64
2022-12-08T01:04:30.415Z,1.62
2022-12-08T01:06:58.288Z,1.61
2022-12-08T01:09:26.357Z,1.61
2022-12-08T01:11:54.661Z,1.61
2022-12-08T01:14:22.565Z,1.61
2022-12-08T01:16:50.968Z,1.59
2022-12-08T01:19:19.342Z,1.57
2022-12-08T01:21:47.346Z,1.52
2022-12-08T01:24:21.708Z,1.48
2022-12-08T01:26:50.968Z,1.42
2022-12-08T01:29:18.879Z,1.38
2022-12-08T01:31:47.038Z,1.36
2022-12-08T01:34:15.077Z,1.34
2022-12-08T01:36:44.465Z,1.31
2022-12-08T01:39:17.957Z,1.28
2022-12-08T01:41:47.768Z,1.25
2022-12-08T01:44:15.728Z,1.22
2022-12-08T01:46:48.830Z,1.21
2022-12-08T01:49:43.105Z,1.20
2022-12-08T01:52:13.654Z,1.20
2022-12-08T01:54:53.092Z,1.18
2022-12-08T01:57:24.025Z,1.16
2022-12-08T01:59:58.855Z,1.14
2022-12-08T02:02:33.605Z,1.13
2022-12-08T02:05:03.506Z,1.12
2022-12-08T02:07:31.781Z,1.10
2022-12-08T02:10:01.000Z,1.09
2022-12-08T02:12:29.755Z,1.07
2022-12-08T02:15:04.852Z,1.05
2022-12-08T02:17:49.865Z,1.04
2022-12-08T02:20:27.614Z,1.01
2022-12-08T02:23:01.514Z,1.00
2022-12-08T02:25:47.892Z,0.99
2022-12-08T02:28:35.981Z,0.99
2022-12-08T02:31:51.364Z,0.98
2022-12-08T02:34:30.550Z,0.97
2022-12-08T02:37:20.580Z,0.96
2022-12-08T02:40:09.598Z,0.95
2022-12-08T02:42:44.599Z,0.92
2022-12-08T02:45:23.070Z,0.96
2022-12-08T02:47:52.223Z,0.94
2022-12-08T02:50:20.487Z,0.92
2022-12-08T02:52:49.101Z,0.91
2022-12-08T02:55:20.090Z,0.86
2022-12-08T02:58:26.095Z,0.80
2022-12-08T03:01:17.991Z,0.76
2022-12-08T03:04:13.900Z,0.72
2022-12-08T03:07:00.280Z,0.72
2022-12-08T03:09:44.781Z,0.73
2022-12-08T03:12:26.425Z,0.73
2022-12-08T03:14:58.768Z,0.75
2022-12-08T03:17:30.011Z,0.93
2022-12-08T03:20:04.191Z,1.27
2022-12-08T03:22:33.129Z,1.23
2022-12-08T03:25:01.505Z,1.19
2022-12-08T03:27:31.533Z,1.14
2022-12-08T03:30:01.130Z,1.11
2022-12-08T03:32:48.159Z,1.10
2022-12-08T03:35:24.291Z,1.10
2022-12-08T03:37:52.804Z,1.09
2022-12-08T03:40:21.016Z,1.09
2022-12-08T03:42:48.903Z,1.08
2022-12-08T03:45:16.932Z,1.04
2022-12-08T03:47:45.180Z,1.03
2022-12-08T03:50:13.255Z,0.98
2022-12-08T03:52:41.211Z,0.92
2022-12-08T03:55:09.496Z,0.87
2022-12-08T03:57:37.910Z,0.82
2022-12-08T04:00:07.624Z,0.79
2022-12-08T04:02:35.762Z,0.77
2022-12-08T04:05:03.907Z,0.74
2022-12-08T04:07:31.891Z,0.72
2022-12-08T04:10:00.179Z,0.71
2022-12-08T04:12:28.059Z,0.70
2022-12-08T04:14:55.972Z,0.72
2022-12-08T04:17:23.903Z,0.74
2022-12-08T04:19:52.573Z,0.73
2022-12-08T04:22:20.509Z,0.74
2022-12-08T04:24:48.890Z,0.74
2022-12-08T04:27:16.768Z,0.72
2022-12-08T04:29:44.611Z,0.70
2022-12-08T04:32:12.874Z,0.69
2022-12-08T04:34:40.887Z,0.66
2022-12-08T04:37:08.880Z,0.62
2022-12-08T04:39:37.082Z,0.57
2022-12-08T04:42:05.181Z,0.53
2022-12-08T04:44:33.053Z,0.51
2022-12-08T04:47:01.008Z,0.48
2022-12-08T04:49:29.145Z,0.45
2022-12-08T04:51:57.119Z,0.41
2022-12-08T04:54:25.224Z,0.39
2022-12-08T04:56:53.207Z,0.41
2022-12-08T04:59:21.219Z,0.41
2022-12-08T05:01:49.375Z,0.41
2022-12-08T05:04:17.546Z,0.38
2022-12-08T05:06:45.961Z,0.35
2022-12-08T05:09:13.988Z,0.31
2022-12-08T05:11:46.962Z,0.30
2022-12-08T05:14:18.999Z,0.29
2022-12-08T05:16:47.968Z,0.30
2022-12-08T05:19:16.696Z,0.32
2022-12-08T05:21:45.362Z,0.33
2022-12-08T05:24:13.299Z,0.37
2022-12-08T05:26:41.399Z,0.44
2022-12-08T05:29:09.849Z,0.59
2022-12-08T05:31:37.945Z,0.79
2022-12-08T05:34:05.926Z,0.79
2022-12-08T05:36:33.976Z,0.79
2022-12-08T05:39:01.920Z,0.79
2022-12-08T05:41:29.845Z,0.78
2022-12-08T05:43:57.767Z,0.73
2022-12-08T05:46:25.946Z,0.69
2022-12-08T05:48:54.067Z,0.68
2022-12-08T05:51:24.273Z,0.67
2022-12-08T05:53:53.028Z,0.69
2022-12-08T05:56:22.231Z,0.70
2022-12-08T05:58:50.392Z,0.75
2022-12-08T06:01:22.683Z,0.78
2022-12-08T06:03:51.401Z,0.84
2022-12-08T06:06:20.167Z,0.88
2022-12-08T06:08:48.147Z,0.91
2022-12-08T06:11:25.552Z,0.95
2022-12-08T06:13:54.694Z,0.98
2022-12-08T06:16:23.886Z,0.99
2022-12-08T06:18:52.387Z,1.05
2022-12-08T06:21:21.050Z,1.07
2022-12-08T06:23:51.286Z,1.07
2022-12-08T06:26:20.610Z,1.04
2022-12-08T06:28:49.485Z,1.02
2022-12-08T06:31:27.966Z,1.00
2022-12-08T06:33:56.035Z,1.01
2022-12-08T06:36:26.234Z,1.02
2022-12-08T06:38:54.275Z,1.02
2022-12-08T06:41:22.359Z,1.05
2022-12-08T06:43:50.645Z,1.08
2022-12-08T06:46:20.358Z,1.09
2022-12-08T06:48:50.477Z,1.12
2022-12-08T06:51:22.060Z,1.14
2022-12-08T06:53:50.041Z,1.16
2022-12-08T06:56:20.114Z,1.20
2022-12-08T06:58:52.505Z,1.23
2022-12-08T07:01:21.599Z,1.25
2022-12-08T07:03:49.750Z,1.28
2022-12-08T07:06:23.899Z,1.29
2022-12-08T07:08:52.195Z,1.32
2022-12-08T07:11:22.190Z,1.35
2022-12-08T07:13:51.597Z,1.36
2022-12-08T07:16:19.799Z,1.36
2022-12-08T07:18:47.836Z,1.37
2022-12-08T07:21:17.604Z,1.40
2022-12-08T07:23:46.867Z,1.43
2022-12-08T07:26:15.408Z,1.47
2022-12-08T07:28:43.773Z,1.51
2022-12-08T07:31:21.165Z,1.56
2022-12-08T07:33:50.358Z,1.60
2022-12-08T07:36:18.772Z,1.64
2022-12-08T07:38:47.270Z,1.66
2022-12-08T07:41:23.244Z,1.69
2022-12-08T07:43:53.574Z,1.71
2022-12-08T07:46:24.171Z,1.74
2022-12-08T07:48:52.614Z,1.78
2022-12-08T07:51:21.208Z,1.82
2022-12-08T07:53:54.249Z,1.85
2022-12-08T07:56:23.733Z,1.88
2022-12-08T07:58:51.997Z,1.93
2022-12-08T08:01:26.548Z,1.97
2022-12-08T08:03:57.190Z,1.99
2022-12-08T08:06:25.246Z,2.03
2022-12-08T08:08:53.431Z,2.07
2022-12-08T08:11:21.918Z,2.12
2022-12-08T08:13:51.041Z,2.17
2022-12-08T08:16:19.873Z,2.24
2022-12-08T08:18:50.035Z,2.30
2022-12-08T08:24:08.916Z,2.40
2022-12-08T08:26:37.419Z,2.45
2022-12-08T08:29:05.529Z,2.47
2022-12-08T08:31:33.552Z,2.53
2022-12-08T08:34:06.141Z,2.63
2022-12-08T08:36:34.628Z,2.70
2022-12-08T08:39:03.402Z,2.75
2022-12-08T08:41:31.462Z,2.82
2022-12-08T08:43:59.500Z,2.88
2022-12-08T08:46:27.763Z,2.94
2022-12-08T08:48:56.390Z,2.99
2022-12-08T08:51:24.601Z,3.00
2022-12-08T08:53:52.456Z,3.02
2022-12-08T08:56:20.422Z,3.06
2022-12-08T08:58:49.655Z,3.09
2022-12-08T09:01:21.083Z,3.13
2022-12-08T09:03:49.731Z,3.20
2022-12-08T09:06:18.307Z,3.27
2022-12-08T09:08:46.936Z,3.33
2022-12-08T09:11:15.442Z,3.38
2022-12-08T09:13:43.452Z,3.44
2022-12-08T09:16:11.972Z,3.49
2022-12-08T09:18:40.056Z,3.53
2022-12-08T09:21:13.272Z,3.58
2022-12-08T09:23:41.216Z,3.62
2022-12-08T09:26:10.170Z,3.68
2022-12-08T09:28:38.425Z,3.72
2022-12-08T09:31:06.449Z,3.76
2022-12-08T09:33:34.579Z,3.82
2022-12-08T09:36:04.401Z,3.91
2022-12-08T09:38:32.840Z,4.02
2022-12-08T09:41:04.408Z,4.11
2022-12-08T09:43:51.864Z,4.20
2022-12-08T09:46:20.941Z,4.28
2022-12-08T09:48:56.977Z,4.38
2022-12-08T09:51:27.166Z,4.49
2022-12-08T09:54:03.289Z,4.56
2022-12-08T09:56:35.780Z,4.61
2022-12-08T09:59:30.741Z,4.66
2022-12-08T10:02:00.496Z,4.69
2022-12-08T10:04:35.183Z,4.70
2022-12-08T10:07:25.117Z,4.72
2022-12-08T10:10:06.099Z,4.72
2022-12-08T10:12:38.154Z,4.72
2022-12-08T10:15:48.771Z,4.70
2022-12-08T10:18:25.025Z,4.72
2022-12-08T10:20:54.545Z,4.74
2022-12-08T10:23:31.856Z,4.77
2022-12-08T10:26:07.639Z,4.80
2022-12-08T10:28:40.046Z,4.83
2022-12-08T10:31:17.992Z,4.85
2022-12-08T10:33:48.322Z,4.87
2022-12-08T10:36:16.213Z,4.90
2022-12-08T10:38:44.295Z,4.91
2022-12-08T10:41:12.476Z,4.95
2022-12-08T10:43:48.105Z,5.00
2022-12-08T10:46:20.698Z,5.05
2022-12-08T10:48:52.733Z,5.10
2022-12-08T10:51:42.092Z,5.12
2022-12-08T10:54:33.372Z,5.15
2022-12-08T10:57:01.644Z,5.19
2022-12-08T10:59:32.868Z,5.21
2022-12-08T11:02:02.548Z,5.22
2022-12-08T11:04:36.661Z,5.23
2022-12-08T11:07:06.539Z,5.26
2022-12-08T11:09:48.686Z,5.29
2022-12-08T11:12:18.618Z,5.30
2022-12-08T11:14:56.238Z,5.31
2022-12-08T11:17:27.344Z,5.34
2022-12-08T11:20:06.498Z,5.39
2022-12-08T11:22:38.077Z,5.43
2022-12-08T11:25:10.890Z,5.46
2022-12-08T11:27:43.582Z,5.61
2022-12-08T11:30:28.020Z,5.74
2022-12-08T11:33:01.473Z,5.83
2022-12-08T11:35:37.526Z,5.87
2022-12-08T11:38:22.280Z,5.92
2022-12-08T11:40:54.424Z,5.96
2022-12-08T11:43:25.362Z,5.99
2022-12-08T11:45:58.137Z,6.01
2022-12-08T11:48:41.191Z,6.02
2022-12-08T11:51:36.716Z,6.05
2022-12-08T11:54:06.342Z,6.10
2022-12-08T11:56:39.000Z,6.12
2022-12-08T11:59:13.479Z,6.13
2022-12-08T12:01:42.854Z,6.17
2022-12-08T12:04:22.223Z,6.23
2022-12-08T12:06:56.157Z,6.29
2022-12-08T12:10:03.788Z,6.36
2022-12-08T12:12:37.871Z,6.42
2022-12-08T12:15:27.897Z,6.50
2022-12-08T12:17:59.183Z,6.59
2022-12-08T12:20:53.176Z,6.67
2022-12-08T12:23:39.117Z,6.77
2022-12-08T12:26:10.235Z,6.83
2022-12-08T12:29:08.604Z,6.89
2022-12-08T12:31:42.025Z,6.96
2022-12-08T12:34:27.238Z,7.02
2022-12-08T12:37:15.612Z,7.07
2022-12-08T12:39:52.914Z,7.09
2022-12-08T12:42:39.575Z,7.12
2022-12-08T12:45:16.174Z,7.14
2022-12-08T12:47:55.895Z,7.16
2022-12-08T12:50:33.508Z,7.19
2022-12-08T12:53:10.680Z,7.23
2022-12-08T12:56:02.472Z,7.27
2022-12-08T12:58:30.434Z,7.29
2022-12-08T13:01:13.966Z,7.31
2022-12-08T13:04:07.312Z,7.34
2022-12-08T13:06:40.838Z,7.37
2022-12-08T13:09:22.290Z,7.41
2022-12-08T13:11:54.153Z,7.42
2022-12-08T13:14:29.823Z,7.39
2022-12-08T13:17:00.152Z,7.37
2022-12-08T13:19:32.147Z,7.36
2022-12-08T13:22:00.748Z,7.36
2022-12-08T13:24:32.579Z,7.37
2022-12-08T13:27:03.794Z,7.38
2022-12-08T13:29:33.429Z,7.39
2022-12-08T13:32:03.087Z,7.40
2022-12-08T13:34:42.163Z,7.39
2022-12-08T13:37:16.147Z,7.38
2022-12-08T13:39:51.653Z,7.38
2022-12-08T13:42:32.632Z,7.37
2022-12-08T13:48:44.631Z,7.29
2022-12-08T13:53:15.845Z,7.21
2022-12-08T13:57:36.871Z,7.14
2022-12-08T14:00:15.968Z,7.11
2022-12-08T14:02:48.419Z,7.08
2022-12-08T14:05:21.872Z,7.05
2022-12-08T14:07:55.425Z,7.03
2022-12-08T14:10:27.595Z,7.03
2022-12-08T14:13:01.848Z,7.01
2022-12-08T14:15:37.609Z,6.98
2022-12-08T14:18:21.640Z,6.96
2022-12-08T14:21:20.303Z,6.96
2022-12-08T14:23:49.249Z,6.96
2022-12-08T14:26:17.960Z,6.94
2022-12-08T14:28:46.012Z,6.94
2022-12-08T14:31:15.022Z,6.93
2022-12-08T14:33:43.324Z,6.92
2022-12-08T14:36:15.822Z,6.91
2022-12-08T14:38:45.241Z,6.92
2022-12-08T14:41:13.226Z,6.91
2022-12-08T14:43:43.005Z,6.89
2022-12-08T14:46:22.335Z,6.89
2022-12-08T14:48:50.562Z,6.87
2022-12-08T14:51:26.520Z,6.84
2022-12-08T14:54:09.672Z,6.83
2022-12-08T14:56:41.886Z,7.25
2022-12-08T14:59:17.732Z,7.43
2022-12-08T15:01:49.452Z,7.38
2022-12-08T15:04:23.195Z,7.30
2022-12-08T15:07:22.811Z,7.24
2022-12-08T15:10:09.640Z,7.16
2022-12-08T15:12:37.807Z,7.09
2022-12-08T15:15:08.558Z,7.06
2022-12-08T15:17:44.530Z,7.07
2022-12-08T15:20:40.918Z,7.03
2022-12-08T15:23:42.629Z,6.97
2022-12-08T15:26:21.088Z,6.91
2022-12-08T15:28:49.245Z,6.88
2022-12-08T15:31:18.034Z,6.84
2022-12-08T15:33:45.936Z,6.81
2022-12-08T15:36:14.162Z,6.78
2022-12-08T15:38:43.260Z,6.75
2022-12-08T15:41:14.837Z,6.72
2022-12-08T15:43:43.622Z,6.68
2022-12-08T15:46:12.002Z,6.65
2022-12-08T15:48:40.219Z,6.62
2022-12-08T15:51:08.287Z,6.61
2022-12-08T15:53:36.134Z,6.58
2022-12-08T15:58:56.855Z,6.56
2022-12-08T16:01:26.619Z,6.55
2022-12-08T16:04:47.749Z,6.54
2022-12-08T16:09:38.947Z,6.56
2022-12-08T16:13:26.656Z,6.57
2022-12-08T16:15:51.235Z,6.58
2022-12-08T16:18:23.928Z,6.58
2022-12-08T16:21:16.870Z,6.60
2022-12-08T16:23:43.719Z,6.61
2022-12-08T16:29:07.499Z,6.61
2022-12-08T16:31:35.611Z,6.62
2022-12-08T16:34:03.704Z,6.62
2022-12-08T16:36:31.749Z,6.63
2022-12-08T16:38:59.654Z,6.64
2022-12-08T16:41:45.827Z,6.66
2022-12-08T16:44:13.916Z,6.68
2022-12-08T16:46:42.120Z,6.70
2022-12-08T16:49:10.075Z,6.72
2022-12-08T16:51:38.605Z,6.75
2022-12-08T16:54:06.492Z,6.77
2022-12-08T16:56:34.384Z,6.77
2022-12-08T16:59:02.732Z,6.73
2022-12-08T17:01:31.573Z,6.70
2022-12-08T17:04:31.007Z,6.67
2022-12-08T17:06:47.997Z,6.65
2022-12-08T17:09:15.887Z,6.62
2022-12-08T17:11:44.161Z,6.58
2022-12-08T17:14:13.540Z,6.54
2022-12-08T17:16:42.353Z,6.50
2022-12-08T17:19:13.408Z,6.45
2022-12-08T17:21:43.484Z,6.57
2022-12-08T17:24:14.619Z,6.86
2022-12-08T17:26:43.875Z,6.85
2022-12-08T17:29:11.969Z,6.79
2022-12-08T17:31:39.900Z,6.72
2022-12-08T17:34:11.100Z,6.67
2022-12-08T17:36:39.360Z,6.63
2022-12-08T17:39:12.147Z,6.61
2022-12-08T17:41:42.942Z,6.60
2022-12-08T17:44:13.509Z,6.57
2022-12-08T17:46:45.244Z,6.51
2022-12-08T17:49:20.452Z,6.47
2022-12-08T17:51:51.068Z,6.45
2022-12-08T17:54:20.079Z,6.44
2022-12-08T17:56:48.368Z,6.45
2022-12-08T17:59:16.618Z,6.46
2022-12-08T18:01:44.832Z,6.46
2022-12-08T18:04:13.207Z,6.46
2022-12-08T18:06:41.530Z,6.45
2022-12-08T18:09:09.738Z,6.44
2022-12-08T18:11:37.877Z,6.42
2022-12-08T18:14:11.063Z,6.40
2022-12-08T18:16:41.583Z,6.39
2022-12-08T18:19:09.773Z,6.38
2022-12-08T18:21:38.251Z,6.37
2022-12-08T18:24:07.225Z,6.37
2022-12-08T18:26:35.483Z,6.36
2022-12-08T18:29:03.785Z,6.38
2022-12-08T18:31:31.761Z,6.43
2022-12-08T18:33:59.791Z,6.46
2022-12-08T18:36:27.796Z,6.75
2022-12-08T18:38:56.019Z,6.84
2022-12-08T18:41:26.088Z,6.82
2022-12-08T18:43:55.742Z,6.83
2022-12-08T18:46:25.314Z,6.79
2022-12-08T18:48:53.375Z,6.73
2022-12-08T18:51:24.182Z,6.68
2022-12-08T18:53:52.840Z,6.65
2022-12-08T18:56:26.806Z,6.66
2022-12-08T18:59:01.307Z,6.61
2022-12-08T19:01:33.016Z,6.54
2022-12-08T19:06:52.242Z,6.47
2022-12-08T19:09:20.653Z,6.62
2022-12-08T19:11:49.121Z,6.72
2022-12-08T19:14:19.223Z,6.68
2022-12-08T19:16:51.336Z,6.60
2022-12-08T19:19:19.282Z,6.53
2022-12-08T19:21:47.184Z,6.52
2022-12-08T19:24:15.705Z,6.51
2022-12-08T19:26:43.721Z,6.48
2022-12-08T19:29:12.280Z,6.45
2022-12-08T19:31:41.681Z,6.43
2022-12-08T19:34:11.886Z,6.39
2022-12-08T19:36:42.950Z,6.38
2022-12-08T19:39:38.823Z,6.38
2022-12-08T19:42:36.072Z,6.36
2022-12-08T19:45:12.037Z,6.35
2022-12-08T19:47:41.306Z,6.34
2022-12-08T19:50:31.069Z,6.31
2022-12-08T19:52:59.623Z,6.28
2022-12-08T19:55:28.183Z,6.24
2022-12-08T19:57:57.109Z,6.21
2022-12-08T20:00:25.812Z,6.17
2022-12-08T20:02:54.073Z,6.14
2022-12-08T20:05:22.832Z,6.12
2022-12-08T20:07:50.976Z,6.12
2022-12-08T20:10:23.265Z,6.12
2022-12-08T20:12:51.812Z,6.13
2022-12-08T20:15:19.927Z,6.14
2022-12-08T20:17:47.899Z,6.14
2022-12-08T20:20:16.171Z,6.11
2022-12-08T20:22:45.261Z,6.09
2022-12-08T20:25:13.520Z,6.07
2022-12-08T20:27:41.753Z,6.05
2022-12-08T20:30:16.530Z,6.01
2022-12-08T20:32:45.896Z,5.95
2022-12-08T20:35:15.512Z,5.91
2022-12-08T20:37:43.644Z,5.91
2022-12-08T20:40:12.172Z,5.90
2022-12-08T20:42:40.074Z,5.92
2022-12-08T20:45:09.913Z,5.97
2022-12-08T20:47:38.282Z,5.99
2022-12-08T20:50:07.472Z,6.00
2022-12-08T20:52:38.126Z,6.03
2022-12-08T20:55:07.240Z,6.03
2022-12-08T20:57:35.779Z,6.02
2022-12-08T21:00:05.285Z,6.03
2022-12-08T21:02:33.825Z,6.05
2022-12-08T21:05:02.391Z,6.05
2022-12-08T21:07:30.618Z,6.06
2022-12-08T21:09:59.116Z,6.07
2022-12-08T21:12:27.209Z,6.06
2022-12-08T21:14:55.193Z,6.03
2022-12-08T21:17:23.758Z,6.00
2022-12-08T21:19:51.732Z,5.99
2022-12-08T21:22:21.096Z,5.98
2022-12-08T21:24:49.337Z,5.98
2022-12-08T21:27:17.343Z,5.98
2022-12-08T21:29:45.543Z,5.98
2022-12-08T21:32:14.458Z,5.97
2022-12-08T21:34:44.284Z,5.95
2022-12-08T21:37:12.415Z,5.96
2022-12-08T21:39:40.367Z,5.97
2022-12-08T21:42:33.926Z,5.98
2022-12-08T21:45:02.473Z,5.97
2022-12-08T21:47:30.730Z,5.96
2022-12-08T21:49:58.798Z,5.97
2022-12-08T21:52:27.260Z,5.99
2022-12-08T21:54:55.535Z,6.00
2022-12-08T21:57:24.554Z,6.01
2022-12-08T21:59:52.760Z,6.02
2022-12-08T22:02:22.676Z,6.03
2022-12-08T22:04:52.979Z,6.05
2022-12-08T22:07:22.058Z,6.08
2022-12-08T22:09:49.968Z,6.13
2022-12-08T22:12:18.221Z,6.16
2022-12-08T22:14:46.303Z,6.18
2022-12-08T22:17:14.390Z,6.18
2022-12-08T22:19:43.640Z,6.19
2022-12-08T22:22:11.727Z,6.20
2022-12-08T22:24:39.799Z,6.22
2022-12-08T22:27:08.183Z,6.22
2022-12-08T22:29:36.127Z,6.24
2022-12-08T22:32:04.234Z,6.27
2022-12-08T22:34:32.514Z,6.29
2022-12-08T22:37:00.826Z,6.32
2022-12-08T22:39:28.789Z,6.35
2022-12-08T22:41:56.637Z,6.36
2022-12-08T22:44:24.597Z,6.37
2022-12-08T22:46:52.583Z,6.37
2022-12-08T22:49:20.497Z,6.38
2022-12-08T22:51:48.440Z,6.38
2022-12-08T22:54:16.651Z,6.39
2022-12-08T22:56:44.982Z,6.39
2022-12-08T22:59:12.887Z,6.41
2022-12-08T23:01:41.202Z,6.44
2022-12-08T23:04:17.241Z,6.46
2022-12-08T23:06:46.126Z,6.48
2022-12-08T23:09:14.538Z,6.49
2022-12-08T23:11:44.213Z,6.50
2022-12-08T23:14:12.505Z,6.49
2022-12-08T23:16:40.589Z,6.49
2022-12-08T23:19:08.647Z,6.49
2022-12-08T23:21:36.962Z,6.51
2022-12-08T23:24:05.291Z,6.52
2022-12-08T23:26:35.512Z,6.51
2022-12-08T23:29:04.563Z,6.48
2022-12-08T23:31:32.880Z,6.46
2022-12-08T23:34:02.575Z,6.43
2022-12-08T23:36:31.652Z,6.43
2022-12-08T23:38:59.750Z,6.43
2022-12-08T23:41:28.098Z,6.41
2022-12-08T23:43:56.429Z,6.39
2022-12-08T23:46:24.914Z,6.40
2022-12-08T23:48:52.861Z,6.41
2022-12-08T23:51:21.426Z,6.41
2022-12-08T23:53:49.352Z,6.42
2022-12-08T23:56:18.497Z,6.40
2022-12-08T23:58:46.816Z,6.41
